Time,TemperatureF,DewpointF,PressureIn,WindDirection,WindDirectionDegrees,WindSpeedMPH,WindSpeedGustMPH,Humidity,HourlyPrecipIn,Conditions,Clouds,dailyrainin,SoftwareType,DateUTC
2013-01-08 00:00:00,51.8,50.1,29.98,SSW,205,7.0,16.0,94,0.00,RA,,0.00,WeatherDisplay:10.37,2013-01-08 00:00:00,
2013-01-08 00:30:00,52.1,50.4,29.97,SSW,199,9.0,21.0,94,0.00,BKN,,0.00,WeatherDisplay:10.37,2013-01-08 00:30:00,
2013-01-08 01:00:00,52.2,50.8,29.97,SSW,198,5.0,17.0,95,0.00,BKN,,0.00,WeatherDisplay:10.37,2013-01-08 01:00:00,
2013-01-08 01:30:00,52.3,50.9,29.97,SW,214,7.0,20.0,95,0.00,BKN,,0.00,WeatherDisplay:10.37,2013-01-08 01:30:00,
2013-01-08 02:00:00,52.5,51.1,29.97,SSW,201,8.0,20.0,95,0.00,BKN,,0.00,WeatherDisplay:10.37,2013-01-08 02:00:00,
2013-01-08 02:30:00,52.4,51.0,29.97,South,189,8.0,16.0,95,0.00,BKN,,0.00,WeatherDisplay:10.37,2013-01-08 02:30:00,
2013-01-08 03:00:00,52.6,51.2,29.97,SSW,207,6.0,18.0,95,0.00,BKN,,0.00,WeatherDisplay:10.37,2013-01-08 03:00:00,
2013-01-08 04:00:00,52.6,51.2,29.97,SW,217,6.0,15.0,95,0.00,BKN,,0.00,WeatherDisplay:10.37,2013-01-08 04:00:00,
2013-01-08 04:30:00,52.6,51.2,29.96,South,190,7.0,16.0,95,0.00,BKN,,0.00,WeatherDisplay:10.37,2013-01-08 04:30:00,
2013-01-08 05:00:00,52.6,50.9,29.97,SSW,208,6.0,14.0,94,0.00,BKN,,0.00,WeatherDisplay:10.37,2013-01-08 05:00:00,
2013-01-08 05:30:00,52.7,51.0,29.98,SSW,210,7.0,12.0,94,0.00,BKN,,0.00,WeatherDisplay:10.37,2013-01-08 05:30:00,
2013-01-08 06:00:00,52.8,51.1,29.99,SSW,208,6.0,13.0,94,0.00,BKN,,0.00,WeatherDisplay:10.37,2013-01-08 06:00:00,
2013-01-08 06:30:00,52.7,51.3,29.99,SSW,208,5.0,12.0,95,0.00,BKN,,0.00,WeatherDisplay:10.37,2013-01-08 06:30:00,
2013-01-08 07:00:00,52.6,51.2,30.00,SW,215,3.0,12.0,95,0.00,BKN,,0.00,WeatherDisplay:10.37,2013-01-08 07:00:00,
2013-01-08 07:30:00,52.5,51.1,30.02,WSW,243,5.0,12.0,95,0.01,RA,,0.01,WeatherDisplay:10.37,2013-01-08 07:30:00,
2013-01-08 08:00:00,51.4,50.0,30.04,WNW,284,8.0,13.0,95,0.01,BKN,,0.02,WeatherDisplay:10.37,2013-01-08 08:00:00,
2013-01-08 08:30:00,49.6,48.0,30.07,WNW,290,2.0,12.0,94,0.01,-DZ,,0.02,WeatherDisplay:10.37,2013-01-08 08:30:00,
2013-01-08 09:00:00,49.2,47.5,30.09,WSW,246,2.0,9.0,94,0.00,BKN,,0.02,WeatherDisplay:10.37,2013-01-08 09:00:00,
2013-01-08 09:30:00,48.6,47.0,30.10,WSW,245,5.0,7.0,94,0.00,-DZ,,0.02,WeatherDisplay:10.37,2013-01-08 09:30:00,
2013-01-08 10:00:00,48.3,46.4,30.11,WSW,257,2.0,9.0,93,0.01,BKN,,0.03,WeatherDisplay:10.37,2013-01-08 10:00:00,
2013-01-08 10:30:00,48.3,46.4,30.13,WSW,253,3.0,6.0,93,0.00,BKN,,0.03,WeatherDisplay:10.37,2013-01-08 10:30:00,
2013-01-08 11:00:00,48.5,46.6,30.12,West,259,2.0,8.0,93,0.00,BKN,,0.03,WeatherDisplay:10.37,2013-01-08 11:00:00,
2013-01-08 11:30:00,48.6,46.6,30.13,WSW,257,3.0,7.0,93,0.00,BKN,,0.03,WeatherDisplay:10.37,2013-01-08 11:30:00,
2013-01-08 12:00:00,48.7,46.8,30.14,WSW,250,2.0,8.0,93,0.00,BKN,,0.03,WeatherDisplay:10.37,2013-01-08 12:00:00,
2013-01-08 12:30:00,48.4,46.2,30.15,West,263,3.0,7.0,92,0.00,BKN,,0.03,WeatherDisplay:10.37,2013-01-08 12:30:00,
2013-01-08 13:00:00,48.5,46.3,30.14,West,276,5.0,8.0,92,0.00,BKN,,0.03,WeatherDisplay:10.37,2013-01-08 13:00:00,
2013-01-08 13:30:00,48.3,45.5,30.15,West,264,3.0,8.0,90,0.00,BKN,,0.03,WeatherDisplay:10.37,2013-01-08 13:30:00,
2013-01-08 14:00:00,48.3,45.5,30.15,WSW,254,1.0,7.0,90,0.00,BKN,,0.03,WeatherDisplay:10.37,2013-01-08 14:00:00,
2013-01-08 14:30:00,48.5,45.1,30.15,WNW,287,2.0,8.0,88,0.00,SCT,,0.03,WeatherDisplay:10.37,2013-01-08 14:30:00,
2013-01-08 15:00:00,48.9,45.5,30.16,WNW,303,2.0,6.0,88,0.00,SCT,,0.03,WeatherDisplay:10.37,2013-01-08 15:00:00,
2013-01-08 15:30:00,48.0,43.7,30.16,WNW,298,2.0,9.0,85,0.00,FEW,,0.03,WeatherDisplay:10.37,2013-01-08 15:30:00,
2013-01-08 16:00:00,47.1,43.1,30.17,SW,234,0.0,5.0,86,0.00,FEW,,0.03,WeatherDisplay:10.37,2013-01-08 16:00:00,
2013-01-08 16:30:00,45.8,42.2,30.18,WSW,244,0.0,3.0,87,0.00,FEW,,0.03,WeatherDisplay:10.37,2013-01-08 16:30:00,
2013-01-08 17:00:00,44.5,41.7,30.19,WNW,296,0.0,4.0,90,0.00,FEW,,0.03,WeatherDisplay:10.37,2013-01-08 17:00:00,
2013-01-08 17:30:00,43.7,41.2,30.19,SW,229,0.0,2.0,91,0.00,FEW,,0.03,WeatherDisplay:10.37,2013-01-08 17:30:00,
2013-01-08 18:00:00,42.7,40.5,30.20,SW,229,0.0,1.0,92,0.00,FEW,,0.03,WeatherDisplay:10.37,2013-01-08 18:00:00,
2013-01-08 18:30:00,41.8,39.6,30.20,SW,229,0.0,1.0,92,0.00,FEW,,0.03,WeatherDisplay:10.37,2013-01-08 18:30:00,
2013-01-08 19:00:00,41.1,39.2,30.21,SW,229,0.0,1.0,93,0.00,FEW,,0.03,WeatherDisplay:10.37,2013-01-08 19:00:00,
2013-01-08 19:30:00,40.9,39.0,30.21,SW,227,0.0,2.0,93,0.00,FEW,,0.03,WeatherDisplay:10.37,2013-01-08 19:30:00,
2013-01-08 20:00:00,40.7,38.8,30.22,SW,227,0.0,0.0,93,0.00,FEW,,0.03,WeatherDisplay:10.37,2013-01-08 20:00:00,
2013-01-08 20:30:00,40.7,38.8,30.22,SW,227,0.0,1.0,93,0.00,BKN,,0.03,WeatherDisplay:10.37,2013-01-08 20:30:00,
2013-01-08 21:00:00,40.2,38.7,30.22,SW,227,0.0,1.0,94,0.00,BKN,,0.03,WeatherDisplay:10.37,2013-01-08 21:00:00,
2013-01-08 21:30:00,40.0,38.1,30.23,SW,220,0.0,1.0,93,0.00,FEW,,0.03,WeatherDisplay:10.37,2013-01-08 21:30:00,
2013-01-08 22:00:00,39.4,37.8,30.23,SW,221,0.0,1.0,94,0.00,FEW,,0.03,WeatherDisplay:10.37,2013-01-08 22:00:00,
2013-01-08 22:30:00,39.5,37.9,30.23,SW,215,0.0,3.0,94,0.00,FEW,,0.03,WeatherDisplay:10.37,2013-01-08 22:30:00,
2013-01-08 23:00:00,39.3,38.0,30.23,South,187,0.0,2.0,95,0.00,FEW,,0.03,WeatherDisplay:10.37,2013-01-08 23:00:00,
2013-01-08 23:30:00,38.9,37.3,30.23,South,175,0.0,2.0,94,0.00,FEW,,0.03,WeatherDisplay:10.37,2013-01-08 23:30:00,